sensor_id;sensor_type;location;lat;lon;timestamp;temperature;humidity
44069;DHT22;29738;51.234;5.484;2022-09-01T00:01:17;16.20;99.90
44069;DHT22;29738;51.234;5.484;2022-09-01T00:03:49;16.20;99.90
44069;DHT22;29738;51.234;5.484;2022-09-01T00:06:22;16.20;99.90
44069;DHT22;29738;51.234;5.484;2022-09-01T00:08:59;16.10;99.90
44069;DHT22;29738;51.234;5.484;2022-09-01T00:11:26;16.10;99.90
44069;DHT22;29738;51.234;5.484;2022-09-01T00:13:53;16.00;99.90
44069;DHT22;29738;51.234;5.484;2022-09-01T00:16:20;16.00;99.90
44069;DHT22;29738;51.234;5.484;2022-09-01T00:18:49;15.90;99.90
44069;DHT22;29738;51.234;5.484;2022-09-01T00:21:17;15.90;99.90
44069;DHT22;29738;51.234;5.484;2022-09-01T00:23:43;15.90;99.90
44069;DHT22;29738;51.234;5.484;2022-09-01T00:26:09;15.80;99.90
44069;DHT22;29738;51.234;5.484;2022-09-01T00:28:35;15.70;99.90
44069;DHT22;29738;51.234;5.484;2022-09-01T00:31:03;15.70;99.90
44069;DHT22;29738;51.234;5.484;2022-09-01T00:33:29;15.70;99.90
44069;DHT22;29738;51.234;5.484;2022-09-01T00:35:55;15.60;99.90
44069;DHT22;29738;51.234;5.484;2022-09-01T00:38:21;15.60;99.90
44069;DHT22;29738;51.234;5.484;2022-09-01T00:40:46;15.50;99.90
44069;DHT22;29738;51.234;5.484;2022-09-01T00:43:16;15.50;99.90
44069;DHT22;29738;51.234;5.484;2022-09-01T00:45:42;15.50;99.90
44069;DHT22;29738;51.234;5.484;2022-09-01T00:48:08;15.40;99.90
44069;DHT22;29738;51.234;5.484;2022-09-01T00:50:35;15.40;99.90
44069;DHT22;29738;51.234;5.484;2022-09-01T00:53:01;15.40;99.90
44069;DHT22;29738;51.234;5.484;2022-09-01T00:55:30;15.40;99.90
44069;DHT22;29738;51.234;5.484;2022-09-01T00:57:59;15.30;99.90
44069;DHT22;29738;51.234;5.484;2022-09-01T01:00:28;15.40;99.90
44069;DHT22;29738;51.234;5.484;2022-09-01T01:02:54;15.30;99.90
44069;DHT22;29738;51.234;5.484;2022-09-01T01:05:31;15.30;99.90
44069;DHT22;29738;51.234;5.484;2022-09-01T01:07:59;15.10;99.90
44069;DHT22;29738;51.234;5.484;2022-09-01T01:10:29;15.10;99.90
44069;DHT22;29738;51.234;5.484;2022-09-01T01:12:58;15.10;99.90
44069;DHT22;29738;51.234;5.484;2022-09-01T01:15:27;15.00;99.90
44069;DHT22;29738;51.234;5.484;2022-09-01T01:17:53;15.10;99.90
44069;DHT22;29738;51.234;5.484;2022-09-01T01:20:21;15.10;99.90
44069;DHT22;29738;51.234;5.484;2022-09-01T01:26:02;15.00;99.90
44069;DHT22;29738;51.234;5.484;2022-09-01T01:28:31;15.20;99.90
44069;DHT22;29738;51.234;5.484;2022-09-01T01:31:10;15.10;99.90
44069;DHT22;29738;51.234;5.484;2022-09-01T01:33:46;15.10;99.90
44069;DHT22;29738;51.234;5.484;2022-09-01T01:36:22;15.00;99.90
44069;DHT22;29738;51.234;5.484;2022-09-01T01:38:52;14.90;99.90
44069;DHT22;29738;51.234;5.484;2022-09-01T01:41:18;15.00;99.90
44069;DHT22;29738;51.234;5.484;2022-09-01T01:43:45;15.00;99.90
44069;DHT22;29738;51.234;5.484;2022-09-01T01:46:14;14.90;99.90
44069;DHT22;29738;51.234;5.484;2022-09-01T01:48:42;14.90;99.90
44069;DHT22;29738;51.234;5.484;2022-09-01T01:51:09;14.90;99.90
44069;DHT22;29738;51.234;5.484;2022-09-01T01:53:36;14.80;99.90
44069;DHT22;29738;51.234;5.484;2022-09-01T01:56:03;14.70;99.90
44069;DHT22;29738;51.234;5.484;2022-09-01T01:58:29;14.50;99.90
44069;DHT22;29738;51.234;5.484;2022-09-01T02:00:56;14.50;99.90
44069;DHT22;29738;51.234;5.484;2022-09-01T02:03:26;14.50;99.90
44069;DHT22;29738;51.234;5.484;2022-09-01T02:05:54;14.30;99.90
44069;DHT22;29738;51.234;5.484;2022-09-01T02:08:21;14.30;99.90
44069;DHT22;29738;51.234;5.484;2022-09-01T02:10:52;14.50;99.90
44069;DHT22;29738;51.234;5.484;2022-09-01T02:13:21;14.40;99.90
44069;DHT22;29738;51.234;5.484;2022-09-01T02:16:01;14.40;99.90
44069;DHT22;29738;51.234;5.484;2022-09-01T02:18:32;14.30;99.90
44069;DHT22;29738;51.234;5.484;2022-09-01T02:21:03;14.30;99.90
44069;DHT22;29738;51.234;5.484;2022-09-01T02:23:34;14.30;99.90
44069;DHT22;29738;51.234;5.484;2022-09-01T02:26:00;14.10;99.90
44069;DHT22;29738;51.234;5.484;2022-09-01T02:28:28;14.10;99.90
44069;DHT22;29738;51.234;5.484;2022-09-01T02:30:57;14.20;99.90
44069;DHT22;29738;51.234;5.484;2022-09-01T02:33:25;14.10;99.90
44069;DHT22;29738;51.234;5.484;2022-09-01T02:36:00;14.10;99.90
44069;DHT22;29738;51.234;5.484;2022-09-01T02:38:27;14.00;99.90
44069;DHT22;29738;51.234;5.484;2022-09-01T02:40:57;14.00;99.90
44069;DHT22;29738;51.234;5.484;2022-09-01T02:43:24;13.90;99.90
44069;DHT22;29738;51.234;5.484;2022-09-01T02:45:54;13.90;99.90
44069;DHT22;29738;51.234;5.484;2022-09-01T02:48:43;13.90;99.90
44069;DHT22;29738;51.234;5.484;2022-09-01T02:51:19;13.80;99.90
44069;DHT22;29738;51.234;5.484;2022-09-01T02:53:46;13.70;99.90
44069;DHT22;29738;51.234;5.484;2022-09-01T02:56:18;13.70;99.90
44069;DHT22;29738;51.234;5.484;2022-09-01T02:58:45;13.70;99.90
44069;DHT22;29738;51.234;5.484;2022-09-01T03:01:22;13.80;99.90
44069;DHT22;29738;51.234;5.484;2022-09-01T03:03:51;13.70;99.90
44069;DHT22;29738;51.234;5.484;2022-09-01T03:06:18;13.60;99.90
44069;DHT22;29738;51.234;5.484;2022-09-01T03:08:49;13.60;99.90
44069;DHT22;29738;51.234;5.484;2022-09-01T03:11:16;13.50;99.90
44069;DHT22;29738;51.234;5.484;2022-09-01T03:13:42;13.50;99.90
44069;DHT22;29738;51.234;5.484;2022-09-01T03:16:09;13.50;99.90
44069;DHT22;29738;51.234;5.484;2022-09-01T03:18:36;13.50;99.90
44069;DHT22;29738;51.234;5.484;2022-09-01T03:21:02;13.50;99.90
44069;DHT22;29738;51.234;5.484;2022-09-01T03:23:30;13.40;99.90
44069;DHT22;29738;51.234;5.484;2022-09-01T03:25:57;13.50;99.90
44069;DHT22;29738;51.234;5.484;2022-09-01T03:28:23;13.50;99.90
44069;DHT22;29738;51.234;5.484;2022-09-01T03:30:52;13.40;99.90
44069;DHT22;29738;51.234;5.484;2022-09-01T03:33:20;13.40;99.90
44069;DHT22;29738;51.234;5.484;2022-09-01T03:35:47;13.40;99.90
44069;DHT22;29738;51.234;5.484;2022-09-01T03:38:14;13.40;99.90
44069;DHT22;29738;51.234;5.484;2022-09-01T03:40:45;13.40;99.90
44069;DHT22;29738;51.234;5.484;2022-09-01T03:43:12;13.40;99.90
44069;DHT22;29738;51.234;5.484;2022-09-01T03:45:39;13.40;99.90
44069;DHT22;29738;51.234;5.484;2022-09-01T03:48:07;13.40;99.90
44069;DHT22;29738;51.234;5.484;2022-09-01T03:50:39;13.30;99.90
44069;DHT22;29738;51.234;5.484;2022-09-01T03:53:15;13.30;99.90
44069;DHT22;29738;51.234;5.484;2022-09-01T03:55:44;13.20;99.90
44069;DHT22;29738;51.234;5.484;2022-09-01T03:58:11;13.20;99.90
44069;DHT22;29738;51.234;5.484;2022-09-01T04:00:42;13.20;99.90
44069;DHT22;29738;51.234;5.484;2022-09-01T04:03:10;13.20;99.90
44069;DHT22;29738;51.234;5.484;2022-09-01T04:05:41;13.20;99.90
44069;DHT22;29738;51.234;5.484;2022-09-01T04:08:08;13.20;99.90
44069;DHT22;29738;51.234;5.484;2022-09-01T04:10:52;13.10;99.90
44069;DHT22;29738;51.234;5.484;2022-09-01T04:15:46;13.10;99.90
44069;DHT22;29738;51.234;5.484;2022-09-01T04:18:13;13.10;99.90
44069;DHT22;29738;51.234;5.484;2022-09-01T04:20:50;13.10;99.90
44069;DHT22;29738;51.234;5.484;2022-09-01T04:23:25;13.00;99.90
44069;DHT22;29738;51.234;5.484;2022-09-01T04:25:57;13.00;99.90
44069;DHT22;29738;51.234;5.484;2022-09-01T04:28:30;12.90;99.90
44069;DHT22;29738;51.234;5.484;2022-09-01T04:30:59;13.00;99.90
44069;DHT22;29738;51.234;5.484;2022-09-01T04:33:31;13.00;99.90
44069;DHT22;29738;51.234;5.484;2022-09-01T04:36:23;13.00;99.90
44069;DHT22;29738;51.234;5.484;2022-09-01T04:38:55;13.00;99.90
44069;DHT22;29738;51.234;5.484;2022-09-01T04:41:23;13.10;99.90
44069;DHT22;29738;51.234;5.484;2022-09-01T04:43:51;13.10;99.90
44069;DHT22;29738;51.234;5.484;2022-09-01T04:46:21;13.00;99.90
44069;DHT22;29738;51.234;5.484;2022-09-01T04:48:47;13.00;99.90
44069;DHT22;29738;51.234;5.484;2022-09-01T04:51:16;13.00;99.90
44069;DHT22;29738;51.234;5.484;2022-09-01T04:53:42;13.00;99.90
44069;DHT22;29738;51.234;5.484;2022-09-01T04:56:14;13.10;99.90
44069;DHT22;29738;51.234;5.484;2022-09-01T04:58:45;13.10;99.90
44069;DHT22;29738;51.234;5.484;2022-09-01T05:01:23;13.20;99.90
44069;DHT22;29738;51.234;5.484;2022-09-01T05:03:50;13.00;99.90
44069;DHT22;29738;51.234;5.484;2022-09-01T05:06:23;12.70;99.90
44069;DHT22;29738;51.234;5.484;2022-09-01T05:08:49;12.70;99.90
44069;DHT22;29738;51.234;5.484;2022-09-01T05:11:16;12.70;99.90
44069;DHT22;29738;51.234;5.484;2022-09-01T05:13:45;12.70;99.90
44069;DHT22;29738;51.234;5.484;2022-09-01T05:16:15;12.70;99.90
44069;DHT22;29738;51.234;5.484;2022-09-01T05:18:45;12.80;99.90
44069;DHT22;29738;51.234;5.484;2022-09-01T05:21:13;12.90;99.90
44069;DHT22;29738;51.234;5.484;2022-09-01T05:23:41;12.90;99.90
44069;DHT22;29738;51.234;5.484;2022-09-01T05:26:19;12.90;99.90
44069;DHT22;29738;51.234;5.484;2022-09-01T05:28:50;12.90;99.90
44069;DHT22;29738;51.234;5.484;2022-09-01T05:31:18;12.90;99.90
44069;DHT22;29738;51.234;5.484;2022-09-01T05:33:46;13.00;99.90
44069;DHT22;29738;51.234;5.484;2022-09-01T05:36:15;13.00;99.90
44069;DHT22;29738;51.234;5.484;2022-09-01T05:38:42;13.00;99.90
44069;DHT22;29738;51.234;5.484;2022-09-01T05:41:11;13.10;99.90
44069;DHT22;29738;51.234;5.484;2022-09-01T05:43:43;13.10;99.90
44069;DHT22;29738;51.234;5.484;2022-09-01T05:46:11;13.00;99.90
44069;DHT22;29738;51.234;5.484;2022-09-01T05:48:37;13.10;99.90
44069;DHT22;29738;51.234;5.484;2022-09-01T05:51:08;13.10;99.90
44069;DHT22;29738;51.234;5.484;2022-09-01T05:53:34;13.10;99.90
44069;DHT22;29738;51.234;5.484;2022-09-01T05:56:06;13.10;99.90
44069;DHT22;29738;51.234;5.484;2022-09-01T05:58:34;13.30;99.90
44069;DHT22;29738;51.234;5.484;2022-09-01T06:01:01;13.40;99.90
44069;DHT22;29738;51.234;5.484;2022-09-01T06:03:27;13.60;99.90
44069;DHT22;29738;51.234;5.484;2022-09-01T06:05:54;13.80;99.90
44069;DHT22;29738;51.234;5.484;2022-09-01T06:08:25;13.90;99.90
44069;DHT22;29738;51.234;5.484;2022-09-01T06:10:53;14.00;99.90
44069;DHT22;29738;51.234;5.484;2022-09-01T06:13:19;14.10;99.90
44069;DHT22;29738;51.234;5.484;2022-09-01T06:15:48;14.20;99.90
44069;DHT22;29738;51.234;5.484;2022-09-01T06:18:15;14.30;99.90
44069;DHT22;29738;51.234;5.484;2022-09-01T06:20:43;14.40;99.90
44069;DHT22;29738;51.234;5.484;2022-09-01T06:23:12;14.40;99.90
44069;DHT22;29738;51.234;5.484;2022-09-01T06:25:44;14.60;99.90
44069;DHT22;29738;51.234;5.484;2022-09-01T06:28:15;14.70;99.90
44069;DHT22;29738;51.234;5.484;2022-09-01T06:30:42;14.80;99.90
44069;DHT22;29738;51.234;5.484;2022-09-01T06:33:11;14.90;99.90
44069;DHT22;29738;51.234;5.484;2022-09-01T06:35:42;15.10;99.90
44069;DHT22;29738;51.234;5.484;2022-09-01T06:38:12;15.20;99.90
44069;DHT22;29738;51.234;5.484;2022-09-01T06:40:42;15.40;99.90
44069;DHT22;29738;51.234;5.484;2022-09-01T06:43:09;15.50;99.90
44069;DHT22;29738;51.234;5.484;2022-09-01T06:45:41;15.60;99.90
44069;DHT22;29738;51.234;5.484;2022-09-01T06:48:08;15.80;99.90
44069;DHT22;29738;51.234;5.484;2022-09-01T06:50:34;16.00;99.90
44069;DHT22;29738;51.234;5.484;2022-09-01T06:53:00;16.10;99.90
44069;DHT22;29738;51.234;5.484;2022-09-01T06:55:37;16.10;99.90
44069;DHT22;29738;51.234;5.484;2022-09-01T06:58:08;16.40;99.90
44069;DHT22;29738;51.234;5.484;2022-09-01T07:00:36;16.50;99.90
44069;DHT22;29738;51.234;5.484;2022-09-01T07:03:08;16.60;99.90
44069;DHT22;29738;51.234;5.484;2022-09-01T07:05:46;16.60;99.90
44069;DHT22;29738;51.234;5.484;2022-09-01T07:08:15;16.70;99.90
44069;DHT22;29738;51.234;5.484;2022-09-01T07:10:49;16.80;99.90
44069;DHT22;29738;51.234;5.484;2022-09-01T07:13:19;16.90;99.90
44069;DHT22;29738;51.234;5.484;2022-09-01T07:15:52;17.00;99.90
44069;DHT22;29738;51.234;5.484;2022-09-01T07:18:23;17.10;99.90
44069;DHT22;29738;51.234;5.484;2022-09-01T07:20:53;17.10;99.90
44069;DHT22;29738;51.234;5.484;2022-09-01T07:23:19;17.20;99.90
44069;DHT22;29738;51.234;5.484;2022-09-01T07:25:47;17.30;99.90
44069;DHT22;29738;51.234;5.484;2022-09-01T07:28:15;17.50;99.90
44069;DHT22;29738;51.234;5.484;2022-09-01T07:30:46;17.70;99.90
44069;DHT22;29738;51.234;5.484;2022-09-01T07:33:14;18.00;99.90
44069;DHT22;29738;51.234;5.484;2022-09-01T07:35:41;18.10;99.90
44069;DHT22;29738;51.234;5.484;2022-09-01T07:38:08;18.20;99.90
44069;DHT22;29738;51.234;5.484;2022-09-01T07:40:39;18.30;99.90
44069;DHT22;29738;51.234;5.484;2022-09-01T07:43:17;18.40;99.90
44069;DHT22;29738;51.234;5.484;2022-09-01T07:45:47;18.50;99.90
44069;DHT22;29738;51.234;5.484;2022-09-01T07:48:16;18.60;99.90
44069;DHT22;29738;51.234;5.484;2022-09-01T07:50:43;18.70;99.90
44069;DHT22;29738;51.234;5.484;2022-09-01T07:53:14;18.70;99.90
44069;DHT22;29738;51.234;5.484;2022-09-01T07:55:45;18.90;99.90
44069;DHT22;29738;51.234;5.484;2022-09-01T07:58:12;18.90;99.90
44069;DHT22;29738;51.234;5.484;2022-09-01T08:00:39;19.00;99.90
44069;DHT22;29738;51.234;5.484;2022-09-01T08:03:07;18.90;99.90
44069;DHT22;29738;51.234;5.484;2022-09-01T08:05:33;19.10;99.90
44069;DHT22;29738;51.234;5.484;2022-09-01T08:07:59;19.20;99.90
44069;DHT22;29738;51.234;5.484;2022-09-01T08:10:25;19.40;99.90
44069;DHT22;29738;51.234;5.484;2022-09-01T08:12:51;19.50;99.90
44069;DHT22;29738;51.234;5.484;2022-09-01T08:15:17;19.50;99.90
44069;DHT22;29738;51.234;5.484;2022-09-01T08:17:44;19.30;99.90
44069;DHT22;29738;51.234;5.484;2022-09-01T08:20:10;19.30;99.90
44069;DHT22;29738;51.234;5.484;2022-09-01T08:22:37;19.50;99.90
44069;DHT22;29738;51.234;5.484;2022-09-01T08:25:05;19.40;99.90
44069;DHT22;29738;51.234;5.484;2022-09-01T08:27:33;19.60;99.90
44069;DHT22;29738;51.234;5.484;2022-09-01T08:30:05;19.50;99.90
44069;DHT22;29738;51.234;5.484;2022-09-01T08:32:32;19.70;99.90
44069;DHT22;29738;51.234;5.484;2022-09-01T08:34:58;20.00;99.90
44069;DHT22;29738;51.234;5.484;2022-09-01T08:37:24;20.10;99.90
44069;DHT22;29738;51.234;5.484;2022-09-01T08:39:50;20.20;99.90
44069;DHT22;29738;51.234;5.484;2022-09-01T08:45:12;20.30;99.90
44069;DHT22;29738;51.234;5.484;2022-09-01T08:47:40;20.30;99.90
44069;DHT22;29738;51.234;5.484;2022-09-01T08:50:06;20.50;99.90
44069;DHT22;29738;51.234;5.484;2022-09-01T08:52:36;20.70;99.90
44069;DHT22;29738;51.234;5.484;2022-09-01T08:57:46;20.80;99.90
44069;DHT22;29738;51.234;5.484;2022-09-01T09:00:17;20.90;99.90
44069;DHT22;29738;51.234;5.484;2022-09-01T09:03:06;20.90;99.90
44069;DHT22;29738;51.234;5.484;2022-09-01T09:08:35;21.00;99.90
44069;DHT22;29738;51.234;5.484;2022-09-01T09:16:23;21.40;99.90
44069;DHT22;29738;51.234;5.484;2022-09-01T09:18:53;21.50;99.90
44069;DHT22;29738;51.234;5.484;2022-09-01T09:21:41;21.80;99.90
44069;DHT22;29738;51.234;5.484;2022-09-01T09:26:56;21.80;99.90
44069;DHT22;29738;51.234;5.484;2022-09-01T09:29:26;21.80;99.90
44069;DHT22;29738;51.234;5.484;2022-09-01T09:32:05;21.90;99.90
44069;DHT22;29738;51.234;5.484;2022-09-01T09:34:36;21.90;99.90
44069;DHT22;29738;51.234;5.484;2022-09-01T09:37:35;21.80;99.90
44069;DHT22;29738;51.234;5.484;2022-09-01T09:42:40;22.30;99.90
44069;DHT22;29738;51.234;5.484;2022-09-01T09:45:37;22.20;99.90
44069;DHT22;29738;51.234;5.484;2022-09-01T09:48:09;22.30;99.90
44069;DHT22;29738;51.234;5.484;2022-09-01T09:50:38;22.30;99.90
44069;DHT22;29738;51.234;5.484;2022-09-01T09:58:21;22.30;99.90
44069;DHT22;29738;51.234;5.484;2022-09-01T10:04:00;22.10;99.90
44069;DHT22;29738;51.234;5.484;2022-09-01T10:06:41;22.20;99.90
44069;DHT22;29738;51.234;5.484;2022-09-01T10:09:35;22.40;99.90
44069;DHT22;29738;51.234;5.484;2022-09-01T10:12:03;22.70;99.90
44069;DHT22;29738;51.234;5.484;2022-09-01T10:14:41;22.60;99.90
44069;DHT22;29738;51.234;5.484;2022-09-01T10:19:58;22.60;99.90
44069;DHT22;29738;51.234;5.484;2022-09-01T10:22:31;22.50;99.90
44069;DHT22;29738;51.234;5.484;2022-09-01T10:24:58;22.40;99.90
44069;DHT22;29738;51.234;5.484;2022-09-01T10:27:35;22.60;99.90
44069;DHT22;29738;51.234;5.484;2022-09-01T10:30:12;23.10;99.90
44069;DHT22;29738;51.234;5.484;2022-09-01T10:32:46;23.10;99.90
44069;DHT22;29738;51.234;5.484;2022-09-01T10:35:18;23.00;99.90
44069;DHT22;29738;51.234;5.484;2022-09-01T10:37:46;23.40;99.90
44069;DHT22;29738;51.234;5.484;2022-09-01T10:40:34;23.70;99.90
44069;DHT22;29738;51.234;5.484;2022-09-01T10:45:48;24.40;99.90
44069;DHT22;29738;51.234;5.484;2022-09-01T10:50:47;23.90;99.90
44069;DHT22;29738;51.234;5.484;2022-09-01T11:01:09;24.10;99.90
44069;DHT22;29738;51.234;5.484;2022-09-01T11:03:37;23.80;99.80
44069;DHT22;29738;51.234;5.484;2022-09-01T11:06:06;24.00;99.90
44069;DHT22;29738;51.234;5.484;2022-09-01T11:11:07;24.00;99.30
44069;DHT22;29738;51.234;5.484;2022-09-01T11:13:47;23.90;99.30
44069;DHT22;29738;51.234;5.484;2022-09-01T11:16:34;24.10;99.60
44069;DHT22;29738;51.234;5.484;2022-09-01T11:22:13;23.30;99.90
44069;DHT22;29738;51.234;5.484;2022-09-01T11:30:20;23.30;99.90
44069;DHT22;29738;51.234;5.484;2022-09-01T11:32:50;23.70;99.90
44069;DHT22;29738;51.234;5.484;2022-09-01T11:35:20;23.80;99.90
44069;DHT22;29738;51.234;5.484;2022-09-01T11:37:54;23.60;98.40
44069;DHT22;29738;51.234;5.484;2022-09-01T11:40:24;23.50;98.60
44069;DHT22;29738;51.234;5.484;2022-09-01T11:42:52;23.40;99.10
44069;DHT22;29738;51.234;5.484;2022-09-01T11:45:25;23.50;98.90
44069;DHT22;29738;51.234;5.484;2022-09-01T11:47:58;23.60;99.70
44069;DHT22;29738;51.234;5.484;2022-09-01T11:50:26;23.90;98.80
44069;DHT22;29738;51.234;5.484;2022-09-01T11:52:55;24.20;98.80
44069;DHT22;29738;51.234;5.484;2022-09-01T11:55:38;24.50;98.40
44069;DHT22;29738;51.234;5.484;2022-09-01T12:01:09;24.20;97.30
44069;DHT22;29738;51.234;5.484;2022-09-01T12:03:36;24.00;97.30
44069;DHT22;29738;51.234;5.484;2022-09-01T12:06:04;23.90;97.00
44069;DHT22;29738;51.234;5.484;2022-09-01T12:08:34;23.80;96.60
44069;DHT22;29738;51.234;5.484;2022-09-01T12:11:11;23.80;97.10
44069;DHT22;29738;51.234;5.484;2022-09-01T12:13:39;24.00;97.90
44069;DHT22;29738;51.234;5.484;2022-09-01T12:16:08;24.70;97.70
44069;DHT22;29738;51.234;5.484;2022-09-01T12:18:46;24.50;97.30
44069;DHT22;29738;51.234;5.484;2022-09-01T12:21:28;24.40;96.00
44069;DHT22;29738;51.234;5.484;2022-09-01T12:24:17;24.30;96.00
44069;DHT22;29738;51.234;5.484;2022-09-01T12:26:45;24.20;95.90
44069;DHT22;29738;51.234;5.484;2022-09-01T12:29:11;24.00;95.70
44069;DHT22;29738;51.234;5.484;2022-09-01T12:31:42;23.80;95.20
44069;DHT22;29738;51.234;5.484;2022-09-01T12:34:45;24.10;96.20
44069;DHT22;29738;51.234;5.484;2022-09-01T12:37:23;24.20;95.70
44069;DHT22;29738;51.234;5.484;2022-09-01T12:39:56;24.20;95.10
44069;DHT22;29738;51.234;5.484;2022-09-01T12:42:25;24.20;95.60
44069;DHT22;29738;51.234;5.484;2022-09-01T12:45:02;24.20;95.70
44069;DHT22;29738;51.234;5.484;2022-09-01T12:50:01;24.30;95.60
44069;DHT22;29738;51.234;5.484;2022-09-01T12:52:28;24.70;94.30
44069;DHT22;29738;51.234;5.484;2022-09-01T12:55:11;25.00;94.60
44069;DHT22;29738;51.234;5.484;2022-09-01T12:57:44;25.10;93.70
44069;DHT22;29738;51.234;5.484;2022-09-01T13:00:20;25.10;93.80
44069;DHT22;29738;51.234;5.484;2022-09-01T13:03:11;25.20;93.90
44069;DHT22;29738;51.234;5.484;2022-09-01T13:05:40;25.10;94.10
44069;DHT22;29738;51.234;5.484;2022-09-01T13:08:12;25.00;93.30
44069;DHT22;29738;51.234;5.484;2022-09-01T13:10:44;25.30;93.30
44069;DHT22;29738;51.234;5.484;2022-09-01T13:13:12;24.70;93.10
44069;DHT22;29738;51.234;5.484;2022-09-01T13:15:40;24.60;94.00
44069;DHT22;29738;51.234;5.484;2022-09-01T13:18:07;24.70;94.70
44069;DHT22;29738;51.234;5.484;2022-09-01T13:20:34;24.60;93.80
44069;DHT22;29738;51.234;5.484;2022-09-01T13:23:00;24.80;94.30
44069;DHT22;29738;51.234;5.484;2022-09-01T13:25:25;25.30;94.20
44069;DHT22;29738;51.234;5.484;2022-09-01T13:27:52;25.40;93.00
44069;DHT22;29738;51.234;5.484;2022-09-01T13:30:22;25.20;92.90
44069;DHT22;29738;51.234;5.484;2022-09-01T13:32:48;24.70;94.00
44069;DHT22;29738;51.234;5.484;2022-09-01T13:35:17;24.70;93.20
44069;DHT22;29738;51.234;5.484;2022-09-01T13:37:44;24.80;92.70
44069;DHT22;29738;51.234;5.484;2022-09-01T13:40:10;25.20;93.10
44069;DHT22;29738;51.234;5.484;2022-09-01T13:42:43;25.80;92.30
44069;DHT22;29738;51.234;5.484;2022-09-01T13:45:09;26.00;92.20
44069;DHT22;29738;51.234;5.484;2022-09-01T13:47:38;25.70;92.20
44069;DHT22;29738;51.234;5.484;2022-09-01T13:50:04;25.20;92.70
44069;DHT22;29738;51.234;5.484;2022-09-01T13:52:30;25.00;92.20
44069;DHT22;29738;51.234;5.484;2022-09-01T13:54:57;25.20;92.20
44069;DHT22;29738;51.234;5.484;2022-09-01T13:57:23;25.10;92.20
44069;DHT22;29738;51.234;5.484;2022-09-01T13:59:49;25.60;91.80
44069;DHT22;29738;51.234;5.484;2022-09-01T14:02:15;26.20;91.60
44069;DHT22;29738;51.234;5.484;2022-09-01T14:04:40;26.50;91.00
44069;DHT22;29738;51.234;5.484;2022-09-01T14:07:06;26.20;90.90
44069;DHT22;29738;51.234;5.484;2022-09-01T14:09:32;25.90;91.00
44069;DHT22;29738;51.234;5.484;2022-09-01T14:11:58;25.60;91.10
44069;DHT22;29738;51.234;5.484;2022-09-01T14:14:24;25.50;90.60
44069;DHT22;29738;51.234;5.484;2022-09-01T14:16:50;25.40;91.20
44069;DHT22;29738;51.234;5.484;2022-09-01T14:19:16;25.40;92.40
44069;DHT22;29738;51.234;5.484;2022-09-01T14:21:42;25.20;91.40
44069;DHT22;29738;51.234;5.484;2022-09-01T14:24:08;25.10;91.30
44069;DHT22;29738;51.234;5.484;2022-09-01T14:26:34;25.10;91.00
44069;DHT22;29738;51.234;5.484;2022-09-01T14:28:59;25.00;91.20
44069;DHT22;29738;51.234;5.484;2022-09-01T14:31:27;25.10;90.60
44069;DHT22;29738;51.234;5.484;2022-09-01T14:33:54;25.40;91.00
44069;DHT22;29738;51.234;5.484;2022-09-01T14:36:22;26.10;90.80
44069;DHT22;29738;51.234;5.484;2022-09-01T14:38:49;26.10;90.50
44069;DHT22;29738;51.234;5.484;2022-09-01T14:41:16;26.00;91.10
44069;DHT22;29738;51.234;5.484;2022-09-01T14:43:46;26.00;90.30
44069;DHT22;29738;51.234;5.484;2022-09-01T14:46:13;25.80;90.90
44069;DHT22;29738;51.234;5.484;2022-09-01T14:48:39;25.80;90.50
44069;DHT22;29738;51.234;5.484;2022-09-01T14:51:06;25.70;90.80
44069;DHT22;29738;51.234;5.484;2022-09-01T14:53:32;25.70;90.70
44069;DHT22;29738;51.234;5.484;2022-09-01T14:55:59;25.60;90.00
44069;DHT22;29738;51.234;5.484;2022-09-01T14:58:26;25.50;91.00
44069;DHT22;29738;51.234;5.484;2022-09-01T15:00:53;25.50;91.10
44069;DHT22;29738;51.234;5.484;2022-09-01T15:03:25;25.60;90.30
44069;DHT22;29738;51.234;5.484;2022-09-01T15:05:52;26.10;90.80
44069;DHT22;29738;51.234;5.484;2022-09-01T15:08:19;26.30;90.70
44069;DHT22;29738;51.234;5.484;2022-09-01T15:10:46;26.90;89.50
44069;DHT22;29738;51.234;5.484;2022-09-01T15:13:12;27.40;89.00
44069;DHT22;29738;51.234;5.484;2022-09-01T15:15:38;27.20;89.50
44069;DHT22;29738;51.234;5.484;2022-09-01T15:18:05;26.60;89.20
44069;DHT22;29738;51.234;5.484;2022-09-01T15:20:31;26.20;88.30
44069;DHT22;29738;51.234;5.484;2022-09-01T15:23:18;26.20;90.10
44069;DHT22;29738;51.234;5.484;2022-09-01T15:25:46;26.60;90.10
44069;DHT22;29738;51.234;5.484;2022-09-01T15:28:12;27.10;88.50
44069;DHT22;29738;51.234;5.484;2022-09-01T15:30:39;26.50;88.80
44069;DHT22;29738;51.234;5.484;2022-09-01T15:33:07;26.00;89.70
44069;DHT22;29738;51.234;5.484;2022-09-01T15:35:33;25.70;89.70
44069;DHT22;29738;51.234;5.484;2022-09-01T15:55:40;25.80;88.00
44069;DHT22;29738;51.234;5.484;2022-09-01T15:58:07;26.80;87.60
44069;DHT22;29738;51.234;5.484;2022-09-01T16:00:34;27.00;88.80
44069;DHT22;29738;51.234;5.484;2022-09-01T16:02:59;26.80;87.40
44069;DHT22;29738;51.234;5.484;2022-09-01T16:05:30;26.80;89.00
44069;DHT22;29738;51.234;5.484;2022-09-01T16:07:56;26.90;86.90
44069;DHT22;29738;51.234;5.484;2022-09-01T16:10:23;26.30;87.60
44069;DHT22;29738;51.234;5.484;2022-09-01T16:12:49;26.00;88.20
44069;DHT22;29738;51.234;5.484;2022-09-01T16:15:19;26.00;88.60
44069;DHT22;29738;51.234;5.484;2022-09-01T16:20:51;25.90;89.40
44069;DHT22;29738;51.234;5.484;2022-09-01T16:23:22;26.00;89.90
44069;DHT22;29738;51.234;5.484;2022-09-01T16:25:49;26.20;89.70
44069;DHT22;29738;51.234;5.484;2022-09-01T16:28:26;26.20;89.60
44069;DHT22;29738;51.234;5.484;2022-09-01T16:30:57;26.10;89.10
44069;DHT22;29738;51.234;5.484;2022-09-01T16:33:23;26.00;88.30
44069;DHT22;29738;51.234;5.484;2022-09-01T16:41:01;25.60;90.10
44069;DHT22;29738;51.234;5.484;2022-09-01T16:46:37;25.40;90.30
44069;DHT22;29738;51.234;5.484;2022-09-01T16:52:16;25.30;90.10
44069;DHT22;29738;51.234;5.484;2022-09-01T17:00:17;25.30;90.60
44069;DHT22;29738;51.234;5.484;2022-09-01T17:03:14;25.20;90.60
44069;DHT22;29738;51.234;5.484;2022-09-01T17:08:31;25.20;91.40
44069;DHT22;29738;51.234;5.484;2022-09-01T17:13:48;25.30;91.30
44069;DHT22;29738;51.234;5.484;2022-09-01T17:16:34;25.30;91.80
44069;DHT22;29738;51.234;5.484;2022-09-01T17:19:06;25.30;91.60
44069;DHT22;29738;51.234;5.484;2022-09-01T17:27:00;25.10;92.30
44069;DHT22;29738;51.234;5.484;2022-09-01T17:49:27;24.20;93.90
44069;DHT22;29738;51.234;5.484;2022-09-01T17:55:16;24.00;96.00
44069;DHT22;29738;51.234;5.484;2022-09-01T17:57:54;23.50;96.80
44069;DHT22;29738;51.234;5.484;2022-09-01T18:00:24;23.30;97.60
44069;DHT22;29738;51.234;5.484;2022-09-01T18:05:28;22.80;97.90
44069;DHT22;29738;51.234;5.484;2022-09-01T18:08:30;22.50;97.10